sensor_id;sensor_type;location;lat;lon;timestamp;P1;durP1;ratioP1;P2;durP2;ratioP2
41921;SDS011;27609;51.002;5.354;2023-01-13T00:01:14;6.50;;;1.48;;
41921;SDS011;27609;51.002;5.354;2023-01-13T00:03:41;8.57;;;1.88;;
41921;SDS011;27609;51.002;5.354;2023-01-13T00:06:08;8.70;;;1.95;;
41921;SDS011;27609;51.002;5.354;2023-01-13T00:08:38;4.68;;;1.27;;
41921;SDS011;27609;51.002;5.354;2023-01-13T00:11:04;14.43;;;1.92;;
41921;SDS011;27609;51.002;5.354;2023-01-13T00:13:30;10.85;;;1.65;;
41921;SDS011;27609;51.002;5.354;2023-01-13T00:16:00;8.18;;;1.33;;
41921;SDS011;27609;51.002;5.354;2023-01-13T00:18:27;10.65;;;1.35;;
41921;SDS011;27609;51.002;5.354;2023-01-13T00:21:05;10.52;;;2.03;;
41921;SDS011;27609;51.002;5.354;2023-01-13T00:23:34;6.80;;;2.45;;
41921;SDS011;27609;51.002;5.354;2023-01-13T00:26:02;9.60;;;2.53;;
41921;SDS011;27609;51.002;5.354;2023-01-13T00:28:30;9.27;;;2.22;;
41921;SDS011;27609;51.002;5.354;2023-01-13T00:31:06;6.13;;;1.53;;
41921;SDS011;27609;51.002;5.354;2023-01-13T00:33:33;6.20;;;1.33;;
41921;SDS011;27609;51.002;5.354;2023-01-13T00:35:59;11.00;;;2.15;;
41921;SDS011;27609;51.002;5.354;2023-01-13T00:38:26;13.95;;;1.90;;
41921;SDS011;27609;51.002;5.354;2023-01-13T00:40:56;15.50;;;2.30;;
41921;SDS011;27609;51.002;5.354;2023-01-13T00:43:23;10.50;;;1.40;;
41921;SDS011;27609;51.002;5.354;2023-01-13T00:45:49;17.40;;;2.00;;
41921;SDS011;27609;51.002;5.354;2023-01-13T00:48:16;11.02;;;2.10;;
41921;SDS011;27609;51.002;5.354;2023-01-13T00:50:56;12.27;;;2.83;;
41921;SDS011;27609;51.002;5.354;2023-01-13T00:53:23;8.05;;;1.27;;
41921;SDS011;27609;51.002;5.354;2023-01-13T00:55:57;14.27;;;2.03;;
41921;SDS011;27609;51.002;5.354;2023-01-13T00:58:26;12.35;;;1.95;;
41921;SDS011;27609;51.002;5.354;2023-01-13T01:01:03;11.38;;;2.28;;
41921;SDS011;27609;51.002;5.354;2023-01-13T01:03:33;11.02;;;2.35;;
41921;SDS011;27609;51.002;5.354;2023-01-13T01:06:04;12.88;;;1.95;;
41921;SDS011;27609;51.002;5.354;2023-01-13T01:08:31;7.63;;;2.63;;
41921;SDS011;27609;51.002;5.354;2023-01-13T01:11:04;18.05;;;3.83;;
41921;SDS011;27609;51.002;5.354;2023-01-13T01:13:32;12.02;;;2.38;;
41921;SDS011;27609;51.002;5.354;2023-01-13T01:15:58;13.40;;;2.33;;
41921;SDS011;27609;51.002;5.354;2023-01-13T01:18:24;12.05;;;2.00;;
41921;SDS011;27609;51.002;5.354;2023-01-13T01:20:50;12.07;;;1.90;;
41921;SDS011;27609;51.002;5.354;2023-01-13T01:23:16;16.60;;;3.55;;
41921;SDS011;27609;51.002;5.354;2023-01-13T01:25:41;18.73;;;2.55;;
41921;SDS011;27609;51.002;5.354;2023-01-13T01:28:07;23.88;;;3.13;;
41921;SDS011;27609;51.002;5.354;2023-01-13T01:30:33;18.65;;;3.22;;
41921;SDS011;27609;51.002;5.354;2023-01-13T01:32:58;17.73;;;2.35;;
41921;SDS011;27609;51.002;5.354;2023-01-13T01:35:27;17.83;;;3.10;;
41921;SDS011;27609;51.002;5.354;2023-01-13T01:37:52;11.90;;;1.85;;
41921;SDS011;27609;51.002;5.354;2023-01-13T01:40:18;12.98;;;2.47;;
41921;SDS011;27609;51.002;5.354;2023-01-13T01:42:44;14.07;;;3.15;;
41921;SDS011;27609;51.002;5.354;2023-01-13T01:45:28;17.65;;;3.03;;
41921;SDS011;27609;51.002;5.354;2023-01-13T01:47:56;16.23;;;3.08;;
41921;SDS011;27609;51.002;5.354;2023-01-13T01:50:27;20.73;;;3.08;;
41921;SDS011;27609;51.002;5.354;2023-01-13T01:52:55;25.58;;;2.92;;
41921;SDS011;27609;51.002;5.354;2023-01-13T01:55:30;20.15;;;3.25;;
41921;SDS011;27609;51.002;5.354;2023-01-13T01:58:03;15.43;;;2.28;;
41921;SDS011;27609;51.002;5.354;2023-01-13T02:00:56;21.15;;;3.33;;
41921;SDS011;27609;51.002;5.354;2023-01-13T02:03:22;21.48;;;2.38;;
41921;SDS011;27609;51.002;5.354;2023-01-13T02:05:48;13.90;;;2.72;;
41921;SDS011;27609;51.002;5.354;2023-01-13T02:08:15;12.45;;;2.60;;
41921;SDS011;27609;51.002;5.354;2023-01-13T02:10:42;19.42;;;2.22;;
41921;SDS011;27609;51.002;5.354;2023-01-13T02:13:10;12.35;;;2.17;;
41921;SDS011;27609;51.002;5.354;2023-01-13T02:15:41;12.20;;;1.77;;
41921;SDS011;27609;51.002;5.354;2023-01-13T02:21:20;11.18;;;1.90;;
41921;SDS011;27609;51.002;5.354;2023-01-13T02:35:13;9.10;;;2.20;;
41921;SDS011;27609;51.002;5.354;2023-01-13T02:38:02;4.33;;;1.10;;
41921;SDS011;27609;51.002;5.354;2023-01-13T02:43:08;13.30;;;1.70;;
41921;SDS011;27609;51.002;5.354;2023-01-13T02:46:13;13.75;;;1.77;;
41921;SDS011;27609;51.002;5.354;2023-01-13T02:48:47;9.88;;;1.27;;
41921;SDS011;27609;51.002;5.354;2023-01-13T02:51:17;8.25;;;1.75;;
41921;SDS011;27609;51.002;5.354;2023-01-13T02:56:21;7.50;;;1.48;;
41921;SDS011;27609;51.002;5.354;2023-01-13T02:58:48;8.63;;;2.20;;
41921;SDS011;27609;51.002;5.354;2023-01-13T03:01:15;13.45;;;1.45;;
41921;SDS011;27609;51.002;5.354;2023-01-13T03:03:42;14.48;;;1.27;;
41921;SDS011;27609;51.002;5.354;2023-01-13T03:08:54;14.30;;;1.85;;
41921;SDS011;27609;51.002;5.354;2023-01-13T03:15:17;11.85;;;1.95;;
41921;SDS011;27609;51.002;5.354;2023-01-13T03:21:11;18.90;;;1.77;;
41921;SDS011;27609;51.002;5.354;2023-01-13T03:23:42;5.72;;;1.05;;
41921;SDS011;27609;51.002;5.354;2023-01-13T03:26:18;12.27;;;1.58;;
41921;SDS011;27609;51.002;5.354;2023-01-13T03:31:57;11.10;;;1.80;;
41921;SDS011;27609;51.002;5.354;2023-01-13T03:34:32;10.95;;;1.63;;
41921;SDS011;27609;51.002;5.354;2023-01-13T03:37:04;14.27;;;2.47;;
41921;SDS011;27609;51.002;5.354;2023-01-13T03:39:34;8.35;;;2.15;;
41921;SDS011;27609;51.002;5.354;2023-01-13T03:42:04;13.85;;;1.70;;
41921;SDS011;27609;51.002;5.354;2023-01-13T03:44:39;10.68;;;1.90;;
41921;SDS011;27609;51.002;5.354;2023-01-13T03:49:51;7.88;;;1.70;;
41921;SDS011;27609;51.002;5.354;2023-01-13T03:52:27;11.85;;;2.60;;
41921;SDS011;27609;51.002;5.354;2023-01-13T03:54:59;19.42;;;2.70;;
41921;SDS011;27609;51.002;5.354;2023-01-13T03:57:32;11.80;;;2.75;;
41921;SDS011;27609;51.002;5.354;2023-01-13T04:00:03;8.27;;;2.30;;
41921;SDS011;27609;51.002;5.354;2023-01-13T04:02:35;7.63;;;1.25;;
41921;SDS011;27609;51.002;5.354;2023-01-13T04:05:39;17.33;;;2.60;;
41921;SDS011;27609;51.002;5.354;2023-01-13T04:10:40;14.38;;;2.78;;
41921;SDS011;27609;51.002;5.354;2023-01-13T04:13:13;13.32;;;2.03;;
41921;SDS011;27609;51.002;5.354;2023-01-13T04:15:43;19.83;;;2.30;;
41921;SDS011;27609;51.002;5.354;2023-01-13T04:18:11;17.15;;;2.42;;
41921;SDS011;27609;51.002;5.354;2023-01-13T04:20:39;15.48;;;2.63;;
41921;SDS011;27609;51.002;5.354;2023-01-13T04:23:06;10.48;;;2.00;;
41921;SDS011;27609;51.002;5.354;2023-01-13T04:25:32;19.27;;;2.80;;
41921;SDS011;27609;51.002;5.354;2023-01-13T04:27:58;20.05;;;3.28;;
41921;SDS011;27609;51.002;5.354;2023-01-13T04:30:23;11.40;;;2.22;;
41921;SDS011;27609;51.002;5.354;2023-01-13T04:32:49;13.10;;;2.15;;
41921;SDS011;27609;51.002;5.354;2023-01-13T04:35:15;9.73;;;1.52;;
41921;SDS011;27609;51.002;5.354;2023-01-13T04:37:40;9.80;;;2.00;;
41921;SDS011;27609;51.002;5.354;2023-01-13T04:40:06;15.02;;;1.85;;
41921;SDS011;27609;51.002;5.354;2023-01-13T04:42:33;9.75;;;1.60;;
41921;SDS011;27609;51.002;5.354;2023-01-13T04:44:58;10.70;;;2.38;;
41921;SDS011;27609;51.002;5.354;2023-01-13T04:47:24;9.85;;;1.65;;
41921;SDS011;27609;51.002;5.354;2023-01-13T04:49:50;12.05;;;1.67;;
41921;SDS011;27609;51.002;5.354;2023-01-13T04:52:16;8.40;;;2.10;;
41921;SDS011;27609;51.002;5.354;2023-01-13T04:54:41;7.85;;;1.27;;
41921;SDS011;27609;51.002;5.354;2023-01-13T04:57:07;13.57;;;2.42;;
41921;SDS011;27609;51.002;5.354;2023-01-13T04:59:33;6.50;;;1.60;;
41921;SDS011;27609;51.002;5.354;2023-01-13T05:01:58;7.03;;;1.65;;
41921;SDS011;27609;51.002;5.354;2023-01-13T05:04:24;9.63;;;2.00;;
41921;SDS011;27609;51.002;5.354;2023-01-13T05:06:52;10.48;;;1.60;;
41921;SDS011;27609;51.002;5.354;2023-01-13T05:09:17;10.73;;;1.63;;
41921;SDS011;27609;51.002;5.354;2023-01-13T05:11:43;14.05;;;2.50;;
41921;SDS011;27609;51.002;5.354;2023-01-13T05:14:28;10.25;;;1.75;;
41921;SDS011;27609;51.002;5.354;2023-01-13T05:17:22;6.60;;;1.85;;
41921;SDS011;27609;51.002;5.354;2023-01-13T05:19:49;12.35;;;1.95;;
41921;SDS011;27609;51.002;5.354;2023-01-13T05:22:15;17.00;;;2.28;;
41921;SDS011;27609;51.002;5.354;2023-01-13T05:24:59;14.90;;;2.13;;
41921;SDS011;27609;51.002;5.354;2023-01-13T05:27:44;10.75;;;1.60;;
41921;SDS011;27609;51.002;5.354;2023-01-13T05:30:10;12.32;;;1.98;;
41921;SDS011;27609;51.002;5.354;2023-01-13T05:32:36;12.85;;;2.17;;
41921;SDS011;27609;51.002;5.354;2023-01-13T05:35:01;11.35;;;1.83;;
41921;SDS011;27609;51.002;5.354;2023-01-13T05:37:27;12.88;;;2.08;;
41921;SDS011;27609;51.002;5.354;2023-01-13T05:39:53;8.75;;;1.52;;
41921;SDS011;27609;51.002;5.354;2023-01-13T05:42:38;16.77;;;2.35;;
41921;SDS011;27609;51.002;5.354;2023-01-13T05:45:24;14.82;;;2.30;;
41921;SDS011;27609;51.002;5.354;2023-01-13T05:47:50;11.23;;;1.33;;
41921;SDS011;27609;51.002;5.354;2023-01-13T05:50:16;8.93;;;2.03;;
41921;SDS011;27609;51.002;5.354;2023-01-13T05:52:43;8.10;;;1.85;;
41921;SDS011;27609;51.002;5.354;2023-01-13T05:55:09;5.35;;;1.20;;
41921;SDS011;27609;51.002;5.354;2023-01-13T05:57:35;11.57;;;1.38;;
41921;SDS011;27609;51.002;5.354;2023-01-13T06:00:03;9.73;;;1.35;;
41921;SDS011;27609;51.002;5.354;2023-01-13T06:02:29;14.35;;;2.88;;
41921;SDS011;27609;51.002;5.354;2023-01-13T06:04:55;13.40;;;1.95;;
41921;SDS011;27609;51.002;5.354;2023-01-13T06:07:20;13.00;;;1.85;;
41921;SDS011;27609;51.002;5.354;2023-01-13T06:09:46;6.97;;;1.45;;
41921;SDS011;27609;51.002;5.354;2023-01-13T06:12:12;16.30;;;2.78;;
41921;SDS011;27609;51.002;5.354;2023-01-13T06:14:38;19.00;;;2.47;;
41921;SDS011;27609;51.002;5.354;2023-01-13T06:17:07;12.50;;;2.30;;
41921;SDS011;27609;51.002;5.354;2023-01-13T06:22:10;11.20;;;1.98;;
41921;SDS011;27609;51.002;5.354;2023-01-13T06:24:40;11.85;;;1.95;;
41921;SDS011;27609;51.002;5.354;2023-01-13T06:27:07;14.52;;;2.75;;
41921;SDS011;27609;51.002;5.354;2023-01-13T06:29:34;6.57;;;1.42;;
41921;SDS011;27609;51.002;5.354;2023-01-13T06:32:00;15.40;;;2.83;;
41921;SDS011;27609;51.002;5.354;2023-01-13T06:34:30;18.10;;;2.22;;
41921;SDS011;27609;51.002;5.354;2023-01-13T06:36:56;16.42;;;2.42;;
41921;SDS011;27609;51.002;5.354;2023-01-13T06:39:24;13.40;;;2.00;;
41921;SDS011;27609;51.002;5.354;2023-01-13T06:41:55;18.83;;;3.03;;
41921;SDS011;27609;51.002;5.354;2023-01-13T06:44:41;12.15;;;2.17;;
41921;SDS011;27609;51.002;5.354;2023-01-13T06:47:08;15.05;;;2.65;;
41921;SDS011;27609;51.002;5.354;2023-01-13T06:49:34;11.15;;;1.95;;
41921;SDS011;27609;51.002;5.354;2023-01-13T06:51:59;10.82;;;2.30;;
41921;SDS011;27609;51.002;5.354;2023-01-13T06:54:25;8.57;;;1.75;;
41921;SDS011;27609;51.002;5.354;2023-01-13T06:56:51;16.77;;;2.25;;
41921;SDS011;27609;51.002;5.354;2023-01-13T06:59:17;17.52;;;2.72;;
41921;SDS011;27609;51.002;5.354;2023-01-13T07:01:43;14.18;;;1.98;;
41921;SDS011;27609;51.002;5.354;2023-01-13T07:04:09;14.30;;;2.17;;
41921;SDS011;27609;51.002;5.354;2023-01-13T07:06:34;9.00;;;1.55;;
41921;SDS011;27609;51.002;5.354;2023-01-13T07:09:00;20.75;;;2.38;;
41921;SDS011;27609;51.002;5.354;2023-01-13T07:11:26;9.40;;;2.00;;
41921;SDS011;27609;51.002;5.354;2023-01-13T07:13:51;17.35;;;3.05;;
41921;SDS011;27609;51.002;5.354;2023-01-13T07:16:36;19.38;;;2.70;;
41921;SDS011;27609;51.002;5.354;2023-01-13T07:19:01;15.80;;;2.38;;
41921;SDS011;27609;51.002;5.354;2023-01-13T07:21:27;16.05;;;2.47;;
41921;SDS011;27609;51.002;5.354;2023-01-13T07:23:53;16.55;;;2.63;;
41921;SDS011;27609;51.002;5.354;2023-01-13T07:26:18;10.73;;;2.47;;
41921;SDS011;27609;51.002;5.354;2023-01-13T07:28:44;14.80;;;2.35;;
41921;SDS011;27609;51.002;5.354;2023-01-13T07:31:14;19.52;;;2.33;;
41921;SDS011;27609;51.002;5.354;2023-01-13T07:33:42;15.82;;;3.08;;
41921;SDS011;27609;51.002;5.354;2023-01-13T07:36:08;9.32;;;2.50;;
41921;SDS011;27609;51.002;5.354;2023-01-13T07:38:34;20.58;;;3.53;;
41921;SDS011;27609;51.002;5.354;2023-01-13T07:41:00;17.40;;;2.97;;
41921;SDS011;27609;51.002;5.354;2023-01-13T07:43:45;23.27;;;3.22;;
41921;SDS011;27609;51.002;5.354;2023-01-13T07:46:10;15.20;;;2.08;;
41921;SDS011;27609;51.002;5.354;2023-01-13T07:48:36;30.15;;;5.05;;
41921;SDS011;27609;51.002;5.354;2023-01-13T07:51:06;18.25;;;2.83;;
41921;SDS011;27609;51.002;5.354;2023-01-13T07:53:34;17.80;;;3.35;;
41921;SDS011;27609;51.002;5.354;2023-01-13T07:56:19;20.73;;;2.40;;
41921;SDS011;27609;51.002;5.354;2023-01-13T07:58:45;23.67;;;2.67;;
41921;SDS011;27609;51.002;5.354;2023-01-13T08:01:14;19.52;;;3.75;;
41921;SDS011;27609;51.002;5.354;2023-01-13T08:03:41;13.75;;;2.63;;
41921;SDS011;27609;51.002;5.354;2023-01-13T08:06:07;22.38;;;3.35;;
41921;SDS011;27609;51.002;5.354;2023-01-13T08:08:33;14.20;;;2.90;;
41921;SDS011;27609;51.002;5.354;2023-01-13T08:11:00;18.35;;;3.25;;
41921;SDS011;27609;51.002;5.354;2023-01-13T08:13:27;20.70;;;3.20;;
41921;SDS011;27609;51.002;5.354;2023-01-13T08:15:57;16.95;;;3.15;;
41921;SDS011;27609;51.002;5.354;2023-01-13T08:18:25;21.10;;;3.72;;
41921;SDS011;27609;51.002;5.354;2023-01-13T08:20:51;21.00;;;3.83;;
41921;SDS011;27609;51.002;5.354;2023-01-13T08:23:17;19.58;;;3.70;;
41921;SDS011;27609;51.002;5.354;2023-01-13T08:25:44;15.05;;;2.88;;
41921;SDS011;27609;51.002;5.354;2023-01-13T08:28:10;27.73;;;4.55;;
41921;SDS011;27609;51.002;5.354;2023-01-13T08:30:36;19.13;;;4.07;;
41921;SDS011;27609;51.002;5.354;2023-01-13T08:33:05;22.52;;;4.38;;
41921;SDS011;27609;51.002;5.354;2023-01-13T08:35:32;21.92;;;3.92;;
41921;SDS011;27609;51.002;5.354;2023-01-13T08:37:59;19.77;;;4.25;;
41921;SDS011;27609;51.002;5.354;2023-01-13T08:40:33;23.27;;;3.28;;
41921;SDS011;27609;51.002;5.354;2023-01-13T08:42:59;21.08;;;2.47;;
41921;SDS011;27609;51.002;5.354;2023-01-13T08:45:34;16.60;;;2.67;;
41921;SDS011;27609;51.002;5.354;2023-01-13T08:48:02;25.10;;;3.42;;
41921;SDS011;27609;51.002;5.354;2023-01-13T08:50:31;15.98;;;3.75;;
41921;SDS011;27609;51.002;5.354;2023-01-13T08:52:58;15.10;;;3.70;;
41921;SDS011;27609;51.002;5.354;2023-01-13T08:55:33;24.13;;;3.13;;
41921;SDS011;27609;51.002;5.354;2023-01-13T08:57:59;20.92;;;3.20;;
41921;SDS011;27609;51.002;5.354;2023-01-13T09:00:28;21.98;;;4.40;;
41921;SDS011;27609;51.002;5.354;2023-01-13T09:02:57;19.15;;;3.88;;
41921;SDS011;27609;51.002;5.354;2023-01-13T09:05:28;22.77;;;3.92;;
41921;SDS011;27609;51.002;5.354;2023-01-13T09:07:56;24.15;;;3.88;;
41921;SDS011;27609;51.002;5.354;2023-01-13T09:10:24;16.90;;;3.22;;
41921;SDS011;27609;51.002;5.354;2023-01-13T09:12:55;13.25;;;2.85;;
41921;SDS011;27609;51.002;5.354;2023-01-13T09:15:36;22.55;;;3.58;;
41921;SDS011;27609;51.002;5.354;2023-01-13T09:18:05;26.30;;;4.22;;
41921;SDS011;27609;51.002;5.354;2023-01-13T09:20:35;16.02;;;2.60;;
41921;SDS011;27609;51.002;5.354;2023-01-13T09:23:07;19.70;;;3.45;;
41921;SDS011;27609;51.002;5.354;2023-01-13T09:25:32;16.42;;;3.70;;
41921;SDS011;27609;51.002;5.354;2023-01-13T09:28:00;13.57;;;2.65;;
41921;SDS011;27609;51.002;5.354;2023-01-13T09:30:29;23.63;;;3.13;;
41921;SDS011;27609;51.002;5.354;2023-01-13T09:32:59;21.80;;;3.20;;
41921;SDS011;27609;51.002;5.354;2023-01-13T09:35:46;26.25;;;3.35;;
41921;SDS011;27609;51.002;5.354;2023-01-13T09:38:12;19.02;;;3.45;;
41921;SDS011;27609;51.002;5.354;2023-01-13T09:40:38;10.50;;;2.75;;
41921;SDS011;27609;51.002;5.354;2023-01-13T09:43:50;16.65;;;3.45;;
41921;SDS011;27609;51.002;5.354;2023-01-13T09:46:28;17.15;;;2.85;;
41921;SDS011;27609;51.002;5.354;2023-01-13T09:49:30;19.08;;;3.45;;
41921;SDS011;27609;51.002;5.354;2023-01-13T09:55:08;17.63;;;2.83;;
41921;SDS011;27609;51.002;5.354;2023-01-13T09:57:43;23.73;;;3.33;;
41921;SDS011;27609;51.002;5.354;2023-01-13T10:00:13;20.17;;;3.35;;
41921;SDS011;27609;51.002;5.354;2023-01-13T10:08:27;17.63;;;3.50;;
41921;SDS011;27609;51.002;5.354;2023-01-13T10:10:58;17.27;;;2.92;;
41921;SDS011;27609;51.002;5.354;2023-01-13T10:13:45;24.38;;;3.83;;
41921;SDS011;27609;51.002;5.354;2023-01-13T10:19:04;21.20;;;4.05;;
41921;SDS011;27609;51.002;5.354;2023-01-13T10:27:28;22.90;;;3.58;;
41921;SDS011;27609;51.002;5.354;2023-01-13T10:30:08;24.75;;;3.33;;
41921;SDS011;27609;51.002;5.354;2023-01-13T10:32:37;17.40;;;3.55;;
41921;SDS011;27609;51.002;5.354;2023-01-13T10:35:04;22.17;;;2.88;;
41921;SDS011;27609;51.002;5.354;2023-01-13T10:37:30;21.85;;;4.25;;
41921;SDS011;27609;51.002;5.354;2023-01-13T10:39:58;22.50;;;3.95;;
41921;SDS011;27609;51.002;5.354;2023-01-13T10:42:26;19.90;;;5.25;;
41921;SDS011;27609;51.002;5.354;2023-01-13T10:44:52;14.32;;;2.80;;
41921;SDS011;27609;51.002;5.354;2023-01-13T10:52:33;20.60;;;3.22;;
41921;SDS011;27609;51.002;5.354;2023-01-13T10:55:12;22.10;;;3.40;;
41921;SDS011;27609;51.002;5.354;2023-01-13T10:58:06;18.58;;;4.30;;
41921;SDS011;27609;51.002;5.354;2023-01-13T11:00:41;20.58;;;3.60;;
41921;SDS011;27609;51.002;5.354;2023-01-13T11:05:46;14.45;;;2.63;;
41921;SDS011;27609;51.002;5.354;2023-01-13T11:08:27;30.17;;;4.82;;
41921;SDS011;27609;51.002;5.354;2023-01-13T11:10:56;18.20;;;2.80;;
41921;SDS011;27609;51.002;5.354;2023-01-13T11:21:38;20.08;;;3.20;;
41921;SDS011;27609;51.002;5.354;2023-01-13T11:27:41;27.15;;;3.80;;
41921;SDS011;27609;51.002;5.354;2023-01-13T11:33:18;23.38;;;3.03;;
41921;SDS011;27609;51.002;5.354;2023-01-13T11:38:45;21.52;;;4.45;;
41921;SDS011;27609;51.002;5.354;2023-01-13T11:44:05;19.50;;;3.30;;
41921;SDS011;27609;51.002;5.354;2023-01-13T11:46:50;13.15;;;2.47;;
41921;SDS011;27609;51.002;5.354;2023-01-13T11:49:27;9.10;;;2.65;;
41921;SDS011;27609;51.002;5.354;2023-01-13T11:54:47;22.00;;;3.17;;
41921;SDS011;27609;51.002;5.354;2023-01-13T11:57:51;18.52;;;3.15;;
41921;SDS011;27609;51.002;5.354;2023-01-13T12:05:47;16.42;;;2.80;;
41921;SDS011;27609;51.002;5.354;2023-01-13T12:08:32;19.42;;;2.65;;
41921;SDS011;27609;51.002;5.354;2023-01-13T12:16:13;17.27;;;2.80;;
41921;SDS011;27609;51.002;5.354;2023-01-13T12:19:03;19.27;;;3.10;;
41921;SDS011;27609;51.002;5.354;2023-01-13T12:30:08;18.75;;;3.35;;
41921;SDS011;27609;51.002;5.354;2023-01-13T12:35:22;13.80;;;4.53;;
41921;SDS011;27609;51.002;5.354;2023-01-13T12:38:03;25.58;;;3.75;;
41921;SDS011;27609;51.002;5.354;2023-01-13T12:40:42;21.30;;;3.60;;
41921;SDS011;27609;51.002;5.354;2023-01-13T12:43:30;27.15;;;4.45;;
41921;SDS011;27609;51.002;5.354;2023-01-13T12:47:01;19.58;;;3.63;;
41921;SDS011;27609;51.002;5.354;2023-01-13T12:49:41;11.23;;;2.70;;
41921;SDS011;27609;51.002;5.354;2023-01-13T12:57:18;19.83;;;4.00;;
41921;SDS011;27609;51.002;5.354;2023-01-13T13:04:58;13.25;;;2.90;;
41921;SDS011;27609;51.002;5.354;2023-01-13T13:07:46;25.80;;;4.43;;
41921;SDS011;27609;51.002;5.354;2023-01-13T13:10:17;31.00;;;6.00;;
41921;SDS011;27609;51.002;5.354;2023-01-13T13:12:55;27.25;;;4.47;;
41921;SDS011;27609;51.002;5.354;2023-01-13T13:15:41;18.80;;;5.07;;
